createdAt,value
2019-03-24T00:00:13.372Z,99.99
2019-03-24T00:01:13.480Z,99.99
2019-03-24T00:02:13.440Z,99.99
2019-03-24T00:03:13.490Z,99.99
2019-03-24T00:04:13.533Z,99.99
2019-03-24T00:05:13.567Z,99.99
2019-03-24T00:06:13.637Z,99.99
2019-03-24T00:07:13.677Z,99.99
2019-03-24T00:08:13.735Z,99.99
2019-03-24T00:09:13.766Z,99.99
2019-03-24T00:10:13.785Z,99.99
2019-03-24T00:11:13.832Z,99.99
2019-03-24T00:12:13.889Z,99.99
2019-03-24T00:13:13.944Z,99.99
2019-03-24T00:14:13.961Z,99.99
2019-03-24T00:15:14.005Z,99.99
2019-03-24T00:16:14.056Z,99.99
2019-03-24T00:17:14.134Z,99.99
2019-03-24T00:18:14.133Z,99.99
2019-03-24T00:19:14.184Z,99.99
2019-03-24T00:20:14.219Z,99.99
2019-03-24T00:21:14.262Z,99.99
2019-03-24T00:22:14.338Z,99.99
2019-03-24T00:23:14.353Z,99.99
2019-03-24T00:24:14.512Z,99.99
2019-03-24T00:25:14.432Z,99.99
2019-03-24T00:26:14.482Z,99.99
2019-03-24T00:27:14.550Z,99.99
2019-03-24T00:28:14.562Z,99.99
2019-03-24T00:29:14.607Z,99.99
2019-03-24T00:30:14.650Z,99.99
2019-03-24T00:31:14.794Z,99.99
2019-03-24T00:32:14.755Z,99.99
2019-03-24T00:33:14.777Z,99.99
2019-03-24T00:34:14.824Z,99.99
2019-03-24T00:35:14.866Z,99.99
2019-03-24T00:36:14.910Z,99.99
2019-03-24T00:37:14.973Z,99.99
2019-03-24T00:38:15.098Z,99.99
2019-03-24T00:39:15.040Z,99.99
2019-03-24T00:40:15.086Z,99.99
2019-03-24T00:41:15.122Z,99.99
2019-03-24T00:42:15.187Z,99.99
2019-03-24T00:43:15.211Z,99.99
2019-03-24T00:44:15.256Z,99.99
2019-03-24T00:45:15.403Z,99.99
2019-03-24T00:46:15.339Z,99.99
2019-03-24T00:47:15.408Z,99.99
2019-03-24T00:48:15.427Z,99.99
2019-03-24T00:49:15.468Z,99.99
2019-03-24T00:50:15.512Z,99.99
2019-03-24T00:51:15.555Z,99.99
2019-03-24T00:52:15.685Z,99.99
2019-03-24T00:53:15.714Z,99.99
2019-03-24T00:54:15.704Z,99.99
2019-03-24T00:55:15.725Z,99.99
2019-03-24T00:56:15.770Z,99.99
2019-03-24T00:57:15.862Z,99.99
2019-03-24T00:58:15.874Z,99.99
2019-03-24T00:59:15.913Z,99.99
2019-03-24T01:00:15.943Z,99.99
2019-03-24T01:01:15.985Z,99.99
2019-03-24T01:02:16.026Z,99.99
2019-03-24T01:03:16.102Z,99.99
2019-03-24T01:04:16.136Z,99.99
2019-03-24T01:05:16.155Z,99.99
2019-03-24T01:06:16.204Z,99.99
2019-03-24T01:07:16.244Z,99.99
2019-03-24T01:08:16.305Z,99.99
2019-03-24T01:09:16.365Z,99.99
2019-03-24T01:10:16.376Z,99.99
2019-03-24T01:11:16.413Z,99.99
2019-03-24T01:12:16.456Z,99.99
2019-03-24T01:13:16.499Z,99.99
2019-03-24T01:14:16.559Z,99.99
2019-03-24T01:15:16.674Z,99.99
2019-03-24T01:16:16.633Z,99.99
2019-03-24T01:17:16.677Z,99.99
2019-03-24T01:18:16.732Z,99.99
2019-03-24T01:19:16.759Z,99.99
2019-03-24T01:20:16.797Z,99.99
2019-03-24T01:21:16.840Z,99.99
2019-03-24T01:22:16.897Z,99.99
2019-03-24T01:23:16.954Z,99.99
2019-03-24T01:24:16.998Z,99.99
2019-03-24T01:25:17.009Z,99.99
2019-03-24T01:26:17.057Z,99.99
2019-03-24T01:27:17.099Z,99.99
2019-03-24T01:28:17.145Z,99.99
2019-03-24T01:29:17.256Z,99.99
2019-03-24T01:30:17.225Z,99.99
2019-03-24T01:31:17.268Z,99.99
2019-03-24T01:32:17.313Z,99.99
2019-03-24T01:33:17.353Z,99.99
2019-03-24T01:34:17.413Z,99.99
2019-03-24T01:35:17.447Z,99.99
2019-03-24T01:36:17.527Z,99.99
2019-03-24T01:37:17.525Z,99.99
2019-03-24T01:38:17.572Z,99.99
2019-03-24T01:39:17.625Z,99.99
2019-03-24T01:40:17.653Z,99.99
2019-03-24T01:41:17.692Z,99.99
2019-03-24T01:42:17.738Z,99.99
2019-03-24T01:43:17.878Z,99.99
2019-03-24T01:44:17.841Z,99.99
2019-03-24T01:45:17.865Z,99.99
2019-03-24T01:46:17.907Z,99.99
2019-03-24T01:47:17.950Z,99.99
2019-03-24T01:48:17.999Z,99.99
2019-03-24T01:49:18.051Z,99.99
2019-03-24T01:50:18.135Z,99.99
2019-03-24T01:51:18.117Z,99.99
2019-03-24T01:52:18.167Z,99.99
2019-03-24T01:53:18.201Z,99.99
2019-03-24T01:54:18.278Z,99.99
2019-03-24T01:55:18.294Z,99.99
2019-03-24T01:56:18.338Z,99.99
2019-03-24T01:57:18.392Z,99.99
2019-03-24T01:58:18.414Z,99.99
2019-03-24T01:59:18.477Z,99.99
2019-03-24T02:00:18.504Z,99.99
2019-03-24T02:01:18.547Z,99.99
2019-03-24T02:02:18.594Z,99.99
2019-03-24T02:03:18.627Z,99.99
2019-03-24T02:04:18.692Z,99.99
2019-03-24T02:05:18.709Z,99.99
2019-03-24T02:06:18.752Z,99.99
2019-03-24T02:07:18.797Z,99.99
2019-03-24T02:08:18.845Z,99.99
2019-03-24T02:09:18.903Z,99.99
2019-03-24T02:10:18.945Z,99.99
2019-03-24T02:11:18.973Z,99.99
2019-03-24T02:12:19.009Z,99.99
2019-03-24T02:13:19.052Z,99.99
2019-03-24T02:14:19.094Z,99.99
2019-03-24T02:15:19.156Z,99.99
2019-03-24T02:16:19.190Z,99.99
2019-03-24T02:17:19.224Z,99.99
2019-03-24T02:18:19.261Z,99.99
2019-03-24T02:19:19.306Z,99.99
2019-03-24T02:20:19.370Z,99.99
2019-03-24T02:21:19.393Z,99.99
2019-03-24T02:22:19.443Z,99.99
2019-03-24T02:23:19.480Z,99.99
2019-03-24T02:24:19.515Z,99.99
2019-03-24T02:25:19.574Z,99.99
2019-03-24T02:26:19.610Z,99.99
2019-03-24T02:27:19.646Z,99.99
2019-03-24T02:28:19.710Z,99.99
2019-03-24T02:29:19.732Z,99.99
2019-03-24T02:30:19.803Z,99.99
2019-03-24T02:31:19.814Z,99.99
2019-03-24T02:32:19.870Z,99.99
2019-03-24T02:33:19.899Z,99.99
2019-03-24T02:34:19.941Z,99.99
2019-03-24T02:35:20.007Z,99.99
2019-03-24T02:36:20.025Z,99.99
2019-03-24T02:37:20.131Z,99.99
2019-03-24T02:38:20.115Z,99.99
2019-03-24T02:39:20.153Z,99.99
2019-03-24T02:40:20.218Z,99.99
2019-03-24T02:41:20.260Z,99.99
2019-03-24T02:42:20.293Z,99.99
2019-03-24T02:43:20.325Z,99.99
2019-03-24T02:44:20.379Z,99.99
2019-03-24T02:45:20.411Z,99.99
2019-03-24T02:46:24.590Z,99.99
2019-03-24T02:47:20.487Z,99.99
2019-03-24T02:48:20.529Z,99.99
2019-03-24T02:49:20.570Z,99.99
2019-03-24T02:50:20.615Z,99.99
2019-03-24T02:51:20.678Z,99.99
2019-03-24T02:52:20.708Z,99.99
2019-03-24T02:53:20.750Z,99.99
2019-03-24T02:54:20.782Z,99.99
2019-03-24T02:55:20.826Z,99.99
2019-03-24T02:56:20.891Z,99.99
2019-03-24T02:57:20.920Z,99.99
2019-03-24T02:58:20.955Z,99.99
2019-03-24T02:59:20.991Z,99.99
2019-03-24T03:00:21.069Z,99.99
2019-03-24T03:01:21.091Z,99.99
2019-03-24T03:02:21.114Z,99.99
2019-03-24T03:03:21.162Z,99.99
2019-03-24T03:04:21.209Z,99.99
2019-03-24T03:05:21.241Z,99.99
2019-03-24T03:06:21.316Z,99.99
2019-03-24T03:07:21.374Z,99.99
2019-03-24T03:08:21.389Z,99.99
2019-03-24T03:09:21.416Z,99.99
2019-03-24T03:10:21.460Z,99.99
2019-03-24T03:11:21.541Z,99.99
2019-03-24T03:12:21.533Z,99.99
2019-03-24T03:13:21.577Z,99.99
2019-03-24T03:14:21.620Z,99.99
2019-03-24T03:15:21.663Z,99.99
2019-03-24T03:16:21.764Z,99.99
2019-03-24T03:17:21.749Z,99.99
2019-03-24T03:18:21.786Z,99.99
2019-03-24T03:19:21.835Z,99.99
2019-03-24T03:20:21.872Z,99.99
2019-03-24T03:21:21.933Z,99.99
2019-03-24T03:22:21.975Z,99.99
2019-03-24T03:23:22.000Z,99.99
2019-03-24T03:24:22.038Z,99.99
2019-03-24T03:25:22.080Z,99.99
2019-03-24T03:26:22.144Z,99.99
2019-03-24T03:27:22.187Z,99.99
2019-03-24T03:28:22.203Z,99.99
2019-03-24T03:29:22.249Z,99.99
2019-03-24T03:30:22.309Z,99.99
2019-03-24T03:31:22.329Z,99.99
2019-03-24T03:32:22.394Z,99.99
2019-03-24T03:33:22.410Z,99.99
2019-03-24T03:34:22.455Z,99.99
2019-03-24T03:35:22.496Z,99.99
2019-03-24T03:36:22.542Z,99.99
2019-03-24T03:37:22.611Z,99.99
2019-03-24T03:38:22.629Z,99.99
2019-03-24T03:39:22.667Z,99.99
2019-03-24T03:40:22.716Z,99.99
2019-03-24T03:41:22.754Z,99.99
2019-03-24T03:42:22.889Z,99.99
2019-03-24T03:43:22.832Z,99.99
2019-03-24T03:44:22.868Z,99.99
2019-03-24T03:45:22.906Z,99.99
2019-03-24T03:46:22.982Z,99.99
2019-03-24T03:47:23.015Z,99.99
2019-03-24T03:48:23.060Z,99.99
2019-03-24T03:49:23.072Z,99.99
2019-03-24T03:50:23.138Z,99.99
2019-03-24T03:51:23.161Z,99.99
2019-03-24T03:52:23.203Z,99.99
2019-03-24T03:53:23.273Z,99.99
2019-03-24T03:54:23.285Z,99.99
2019-03-24T03:55:23.328Z,99.99
2019-03-24T03:56:23.370Z,99.99
2019-03-24T03:57:23.410Z,99.99
2019-03-24T03:58:23.470Z,99.99
2019-03-24T03:59:23.487Z,99.99
2019-03-24T04:00:23.531Z,99.99
2019-03-24T04:01:23.581Z,99.99
2019-03-24T04:02:23.619Z,99.99
2019-03-24T04:03:23.681Z,99.99
2019-03-24T04:04:23.717Z,99.99
2019-03-24T04:05:23.739Z,99.99
2019-03-24T04:06:23.781Z,99.99
2019-03-24T04:07:23.821Z,99.99
2019-03-24T04:08:23.864Z,99.99
2019-03-24T04:09:23.929Z,99.99
2019-03-24T04:10:23.943Z,99.99
2019-03-24T04:11:23.991Z,99.99
2019-03-24T04:12:24.028Z,99.99
2019-03-24T04:13:24.070Z,99.99
2019-03-24T04:14:24.136Z,99.99
2019-03-24T04:15:24.178Z,99.99
2019-03-24T04:16:24.206Z,99.99
2019-03-24T04:17:24.232Z,99.99
2019-03-24T04:18:24.279Z,99.99
2019-03-24T04:19:24.341Z,99.99
2019-03-24T04:20:24.360Z,99.99
2019-03-24T04:21:24.403Z,99.99
2019-03-24T04:22:24.448Z,99.99
2019-03-24T04:23:24.513Z,99.99
2019-03-24T04:24:24.524Z,99.99
2019-03-24T04:25:24.564Z,99.99
2019-03-24T04:26:24.609Z,99.99
2019-03-24T04:27:24.657Z,99.99
2019-03-24T04:28:24.714Z,99.99
2019-03-24T04:29:24.756Z,99.99
2019-03-24T04:30:24.776Z,99.99
2019-03-24T04:31:24.814Z,99.99
2019-03-24T04:32:24.864Z,99.99
2019-03-24T04:33:25.007Z,99.99
2019-03-24T04:34:24.967Z,99.99
2019-03-24T04:35:24.980Z,99.99
2019-03-24T04:36:25.019Z,99.99
2019-03-24T04:37:25.072Z,99.99
2019-03-24T04:38:25.103Z,99.99
2019-03-24T04:39:25.162Z,99.99
2019-03-24T04:40:25.301Z,99.99
2019-03-24T04:41:25.229Z,99.99
2019-03-24T04:42:25.274Z,99.99
2019-03-24T04:43:25.318Z,99.99
2019-03-24T04:44:25.368Z,99.99
2019-03-24T04:45:25.389Z,99.99
2019-03-24T04:46:25.427Z,99.99
2019-03-24T04:47:25.570Z,99.99
2019-03-24T04:48:25.513Z,99.99
2019-03-24T04:49:25.576Z,99.99
2019-03-24T04:50:25.596Z,99.99
2019-03-24T04:51:25.634Z,99.99
2019-03-24T04:52:25.674Z,99.99
2019-03-24T04:53:25.718Z,99.99
2019-03-24T04:54:25.778Z,99.99
2019-03-24T04:55:25.827Z,99.99
2019-03-24T04:56:25.845Z,99.99
2019-03-24T04:57:25.880Z,99.99
2019-03-24T04:58:25.925Z,99.99
2019-03-24T04:59:25.988Z,99.99
2019-03-24T05:00:26.030Z,99.99
2019-03-24T05:01:26.066Z,99.99
2019-03-24T05:02:26.086Z,99.99
2019-03-24T05:03:26.133Z,99.99
2019-03-24T05:04:26.173Z,99.99
2019-03-24T05:05:26.229Z,99.99
2019-03-24T05:06:26.250Z,99.99
2019-03-24T05:07:26.291Z,99.99
2019-03-24T05:08:26.337Z,99.99
2019-03-24T05:09:26.373Z,99.99
2019-03-24T05:10:26.445Z,99.99
2019-03-24T05:11:26.455Z,99.99
2019-03-24T05:12:26.497Z,99.99
2019-03-24T05:13:26.538Z,99.99
2019-03-24T05:14:26.580Z,99.99
2019-03-24T05:15:26.653Z,99.99
2019-03-24T05:16:26.666Z,99.99
2019-03-24T05:17:27.421Z,99.99
2019-03-24T05:18:26.741Z,99.99
2019-03-24T05:19:26.790Z,99.99
2019-03-24T05:20:26.872Z,99.99
2019-03-24T05:21:26.870Z,99.99
2019-03-24T05:22:26.904Z,99.99
2019-03-24T05:23:26.958Z,99.99
2019-03-24T05:24:26.994Z,99.99
2019-03-24T05:25:27.063Z,99.99
2019-03-24T05:26:27.081Z,99.99
2019-03-24T05:27:27.112Z,99.99
2019-03-24T05:28:27.182Z,99.99
2019-03-24T05:29:27.192Z,99.99
2019-03-24T05:30:27.248Z,99.99
2019-03-24T05:31:27.299Z,99.99
2019-03-24T05:32:27.317Z,99.99
2019-03-24T05:33:27.359Z,99.99
2019-03-24T05:34:27.403Z,99.99
2019-03-24T05:35:27.442Z,99.99
2019-03-24T05:36:27.521Z,99.99
2019-03-24T05:37:27.523Z,99.99
2019-03-24T05:38:27.593Z,99.99
2019-03-24T05:39:27.608Z,99.99
2019-03-24T05:40:27.646Z,99.99
2019-03-24T05:41:27.710Z,99.99
2019-03-24T05:42:27.726Z,99.99
2019-03-24T05:43:27.767Z,99.99
2019-03-24T05:44:27.810Z,99.99
2019-03-24T05:45:27.942Z,99.99
2019-03-24T05:46:27.920Z,99.99
2019-03-24T05:47:36.851Z,99.99
2019-03-24T05:48:27.997Z,99.99
2019-03-24T05:49:28.015Z,99.99
2019-03-24T05:50:28.059Z,99.99
2019-03-24T05:51:28.099Z,99.99
2019-03-24T05:52:28.215Z,99.99
2019-03-24T05:53:28.192Z,99.99
2019-03-24T05:54:28.217Z,99.99
2019-03-24T05:55:28.259Z,99.99
2019-03-24T05:56:28.303Z,99.99
2019-03-24T05:57:29.789Z,99.99
2019-03-24T05:58:28.411Z,99.99
2019-03-24T05:59:28.425Z,99.99
2019-03-24T06:00:28.482Z,99.99
2019-03-24T06:01:28.504Z,99.99
2019-03-24T06:02:28.579Z,99.99
2019-03-24T06:03:28.595Z,99.99
2019-03-24T06:04:28.633Z,99.99
2019-03-24T06:05:28.671Z,99.99
2019-03-24T06:06:28.710Z,99.99
2019-03-24T06:07:28.782Z,99.99
2019-03-24T06:08:28.795Z,99.99
2019-03-24T06:09:28.832Z,99.99
2019-03-24T06:10:28.875Z,99.99
2019-03-24T06:11:28.923Z,99.99
2019-03-24T06:12:28.981Z,99.99
2019-03-24T06:13:28.998Z,99.99
2019-03-24T06:14:29.058Z,99.99
2019-03-24T06:15:29.079Z,99.99
2019-03-24T06:16:29.122Z,99.99
2019-03-24T06:17:29.162Z,99.99
2019-03-24T06:18:29.232Z,99.99
2019-03-24T06:19:29.244Z,99.99
2019-03-24T06:20:29.288Z,99.99
2019-03-24T06:21:29.334Z,99.99
2019-03-24T06:22:29.372Z,99.99
2019-03-24T06:23:29.451Z,99.99
2019-03-24T06:24:29.464Z,99.99
2019-03-24T06:25:29.507Z,99.99
2019-03-24T06:26:29.539Z,99.99
2019-03-24T06:27:29.579Z,99.99
2019-03-24T06:28:29.653Z,99.99
2019-03-24T06:29:29.667Z,99.99
2019-03-24T06:30:29.706Z,99.99
2019-03-24T06:31:29.751Z,99.99
2019-03-24T06:32:29.796Z,99.99
2019-03-24T06:33:29.865Z,99.99
2019-03-24T06:34:29.897Z,99.99
2019-03-24T06:35:29.914Z,99.99
2019-03-24T06:36:29.954Z,99.99
2019-03-24T06:37:30.001Z,99.99
2019-03-24T06:38:30.081Z,99.99
2019-03-24T06:39:30.117Z,99.99
2019-03-24T06:40:30.153Z,99.99
2019-03-24T06:41:30.170Z,99.99
2019-03-24T06:42:30.219Z,99.99
2019-03-24T06:43:30.255Z,99.99
2019-03-24T06:44:30.326Z,99.99
2019-03-24T06:45:30.351Z,99.99
2019-03-24T06:46:30.386Z,99.99
2019-03-24T06:47:30.438Z,99.99
2019-03-24T06:48:30.470Z,99.99
2019-03-24T06:49:30.536Z,99.99
2019-03-24T06:50:30.563Z,99.99
2019-03-24T06:51:30.605Z,98.93
2019-03-24T06:52:30.646Z,96.89
2019-03-24T06:53:30.692Z,95.12
2019-03-24T06:54:30.751Z,92.41
2019-03-24T06:55:30.780Z,89.98
2019-03-24T06:56:30.832Z,87.35
2019-03-24T06:57:30.870Z,85.87
2019-03-24T06:58:30.915Z,84.10
2019-03-24T06:59:30.993Z,82.71
2019-03-24T07:00:31.002Z,80.80
2019-03-24T07:01:31.060Z,80.07
2019-03-24T07:02:31.100Z,78.58
2019-03-24T07:03:32.682Z,76.67
2019-03-24T07:04:31.211Z,75.71
2019-03-24T07:05:31.239Z,76.10
2019-03-24T07:06:31.311Z,76.20
2019-03-24T07:07:31.324Z,75.85
2019-03-24T07:08:31.381Z,74.41
2019-03-24T07:09:31.444Z,73.65
2019-03-24T07:10:31.481Z,72.41
2019-03-24T07:11:31.511Z,72.54
2019-03-24T07:12:31.562Z,72.02
2019-03-24T07:13:31.606Z,70.34
2019-03-24T07:14:31.658Z,70.43
2019-03-24T07:15:31.723Z,70.91
2019-03-24T07:16:31.749Z,70.37
2019-03-24T07:17:31.844Z,69.76
2019-03-24T07:18:31.845Z,69.67
2019-03-24T07:19:31.898Z,69.95
2019-03-24T07:20:31.982Z,69.99
2019-03-24T07:21:31.987Z,69.51
2019-03-24T07:22:32.034Z,69.60
2019-03-24T07:23:32.082Z,69.23
2019-03-24T07:24:32.130Z,67.98
2019-03-24T07:25:32.214Z,68.46
2019-03-24T07:26:32.259Z,68.23
2019-03-24T07:27:32.331Z,69.48
2019-03-24T07:28:32.324Z,69.38
2019-03-24T07:29:32.375Z,69.57
2019-03-24T07:30:32.422Z,69.76
2019-03-24T07:31:32.505Z,69.67
2019-03-24T07:32:32.520Z,69.42
2019-03-24T07:33:32.564Z,69.38
2019-03-24T07:34:32.627Z,69.67
2019-03-24T07:35:32.666Z,68.94
2019-03-24T07:36:32.738Z,69.67
2019-03-24T07:37:32.765Z,70.34
2019-03-24T07:38:32.813Z,70.81
2019-03-24T07:39:32.865Z,71.62
2019-03-24T07:40:32.936Z,70.18
2019-03-24T07:41:33.030Z,70.15
2019-03-24T07:42:33.012Z,72.56
2019-03-24T07:43:33.072Z,73.27
2019-03-24T07:44:33.114Z,73.40
2019-03-24T07:45:33.164Z,71.71
2019-03-24T07:46:33.251Z,70.85
2019-03-24T07:47:33.264Z,70.47
2019-03-24T07:48:33.319Z,69.74
2019-03-24T07:49:33.355Z,70.21
2019-03-24T07:50:33.435Z,70.12
2019-03-24T07:51:33.492Z,69.83
2019-03-24T07:52:33.507Z,70.03
2019-03-24T07:53:33.562Z,69.68
2019-03-24T07:54:33.629Z,68.68
2019-03-24T07:55:33.655Z,69.95
2019-03-24T07:56:33.704Z,71.26
2019-03-24T07:57:33.800Z,75.54
2019-03-24T07:58:33.803Z,78.79
2019-03-24T07:59:33.855Z,79.50
2019-03-24T08:00:33.906Z,78.49
2019-03-24T08:01:33.959Z,76.77
2019-03-24T08:02:34.033Z,76.82
2019-03-24T08:03:34.050Z,77.01
2019-03-24T08:04:34.106Z,78.79
2019-03-24T08:05:34.151Z,79.36
2019-03-24T08:06:34.201Z,79.31
2019-03-24T08:07:34.294Z,78.26
2019-03-24T08:08:43.854Z,77.44
2019-03-24T08:09:34.358Z,76.86
2019-03-24T08:10:34.401Z,77.86
2019-03-24T08:11:34.473Z,75.27
2019-03-24T08:12:34.502Z,74.04
2019-03-24T08:13:34.580Z,74.38
2019-03-24T08:14:34.603Z,75.71
2019-03-24T08:15:34.737Z,76.96
2019-03-24T08:16:34.706Z,77.28
2019-03-24T08:17:34.784Z,75.70
2019-03-24T08:18:34.823Z,75.47
2019-03-24T08:19:34.848Z,76.14
2019-03-24T08:20:34.905Z,74.40
2019-03-24T08:21:34.954Z,74.07
2019-03-24T08:22:35.070Z,73.59
2019-03-24T08:23:35.060Z,74.32
2019-03-24T08:24:35.099Z,74.09
2019-03-24T08:25:35.151Z,75.87
2019-03-24T08:26:35.211Z,76.77
2019-03-24T08:27:35.273Z,75.05
2019-03-24T08:28:35.327Z,74.28
2019-03-24T08:29:35.361Z,73.84
2019-03-24T08:30:35.406Z,73.27
2019-03-24T08:31:35.451Z,75.18
2019-03-24T08:32:35.508Z,76.20
2019-03-24T08:33:35.674Z,77.44
2019-03-24T08:34:35.624Z,78.30
2019-03-24T08:35:35.656Z,78.36
2019-03-24T08:36:35.709Z,78.49
2019-03-24T08:37:35.749Z,78.36
2019-03-24T08:38:35.827Z,78.93
2019-03-24T08:39:35.859Z,80.41
2019-03-24T08:40:35.921Z,82.38
2019-03-24T08:41:35.960Z,83.28
2019-03-24T08:42:36.000Z,82.95
2019-03-24T08:43:36.068Z,82.48
2019-03-24T08:44:36.111Z,80.61
2019-03-24T08:45:36.170Z,79.36
2019-03-24T08:46:36.210Z,79.46
2019-03-24T08:47:36.262Z,79.27
2019-03-24T08:48:40.842Z,78.83
2019-03-24T08:49:36.359Z,77.50
2019-03-24T08:50:36.409Z,79.08
2019-03-24T08:51:36.460Z,80.27
2019-03-24T08:52:36.502Z,77.44
2019-03-24T08:53:36.646Z,75.20
2019-03-24T08:54:36.600Z,74.82
2019-03-24T08:55:36.672Z,77.01
2019-03-24T08:56:36.727Z,77.06
2019-03-24T08:57:36.756Z,74.57
2019-03-24T08:58:36.800Z,75.91
2019-03-24T08:59:36.902Z,75.05
